Georgetown, TX

2:40 PM CDT on May 29, 2015 (GMT -0500)
Golden Oaks | | Change Station
CLOSE
Current Station
Personal Weather Station
Location: Georgetown, TX
Elevation: 748 ft
Nearby Weather Stations

Elev 748 ft 30.67 °N, 97.68 °W | Updated 16 seconds ago

Clear
Clear
86.7 °F
Feels Like 89 °F
N
4.0
Wind Variable Wind from SE
Gusts 6.0 mph

Today
High -- | Low -- °F
--% Chance of Precip.
Yesterday
High -- | Low -- °F
Precip. -- in
6:29 AM 8:26 PM
Waxing Gibbous, 85% visible
Pressure 29.97 in
Visibility 10.0 miles
Clouds Clear
Heat Index 89 °F
Dew Point 66 °F
Humidity 51%
Rainfall 1.01 in
Snow Depth Not available.
UV 12 out of 12
Pollen 3.80 out of 12
Air Quality Not available.
Flu Activity Sporadic
METAR KGTU 291850Z 22003KT 10SM CLR 28/18 A2997

More Conditions Fewer Conditions

Pressure 29.97 in
Visibility 10.0 miles
Clouds Clear
Heat Index 89 °F
Dew Point 66 °F
Humidity 51%
Rainfall 1.01 in
Snow Depth Not available.
UV 12 out of 12
Pollen 3.80 out of 12
Air Quality Not available.
Flu Activity Sporadic
METAR KGTU 291850Z 22003KT 10SM CLR 28/18 A2997

More Conditions Fewer Conditions

10-Day Weather Forecast

Almanac

Astronomy

May. 29, 2015 Rise Set
Actual Time
Civil Twilight
Nautical Twilight
Astronomical Twilight
Moon
Length of Visible Light
Length of Day
Tomorrow will be .
, % of the Moon is Illuminated

Today's Extremes

State Highs State Lows

Community

WunderPhotos

Upload Photos

1,825,332 photos uploaded!

WunderBlogs® & News

Nearby

Air Quality

  Air Quality AQ Index Pollutant
Not available.

Snow Depth

Station Depth Elevation

Earthquake Activity

City Distance Mag. Time & Date
Minimum magnitude displayed is 2.5.

Coastal Water Temperatures

Place Temperature

Stations

Nearby Weather Stations

Station Location Temp. Windchill Dew Point Humidity Wind Precip. Elev Updated Type